sensor_id;sensor_type;location;lat;lon;timestamp;P1;durP1;ratioP1;P2;durP2;ratioP2
51332;SDS011;37417;48.118;11.734;2022-09-09T00:00:16;2.60;;;0.88;;
51332;SDS011;37417;48.118;11.734;2022-09-09T00:03:12;1.05;;;0.70;;
51332;SDS011;37417;48.118;11.734;2022-09-09T00:06:05;1.63;;;0.80;;
51332;SDS011;37417;48.118;11.734;2022-09-09T00:11:51;1.30;;;0.70;;
51332;SDS011;37417;48.118;11.734;2022-09-09T00:14:54;0.60;;;0.60;;
51332;SDS011;37417;48.118;11.734;2022-09-09T00:20:38;0.95;;;0.90;;
51332;SDS011;37417;48.118;11.734;2022-09-09T00:23:30;1.02;;;0.80;;
51332;SDS011;37417;48.118;11.734;2022-09-09T00:31:57;1.27;;;0.63;;
51332;SDS011;37417;48.118;11.734;2022-09-09T00:34:52;4.97;;;0.90;;
51332;SDS011;37417;48.118;11.734;2022-09-09T00:37:39;1.02;;;0.63;;
51332;SDS011;37417;48.118;11.734;2022-09-09T00:40:34;1.33;;;0.90;;
51332;SDS011;37417;48.118;11.734;2022-09-09T00:43:33;1.85;;;0.82;;
51332;SDS011;37417;48.118;11.734;2022-09-09T00:52:26;4.35;;;0.88;;
51332;SDS011;37417;48.118;11.734;2022-09-09T00:55:16;0.82;;;0.60;;
51332;SDS011;37417;48.118;11.734;2022-09-09T00:58:06;0.93;;;0.73;;
51332;SDS011;37417;48.118;11.734;2022-09-09T01:01:07;1.30;;;0.45;;
51332;SDS011;37417;48.118;11.734;2022-09-09T01:03:54;3.50;;;1.13;;
51332;SDS011;37417;48.118;11.734;2022-09-09T01:06:40;4.57;;;0.77;;
51332;SDS011;37417;48.118;11.734;2022-09-09T01:09:27;1.98;;;0.70;;
51332;SDS011;37417;48.118;11.734;2022-09-09T01:12:15;3.95;;;0.98;;
51332;SDS011;37417;48.118;11.734;2022-09-09T01:20:59;3.58;;;0.82;;
51332;SDS011;37417;48.118;11.734;2022-09-09T01:26:31;0.93;;;0.80;;
51332;SDS011;37417;48.118;11.734;2022-09-09T01:29:18;2.85;;;0.80;;
51332;SDS011;37417;48.118;11.734;2022-09-09T01:38:05;2.65;;;0.73;;
51332;SDS011;37417;48.118;11.734;2022-09-09T01:40:51;2.83;;;0.60;;
51332;SDS011;37417;48.118;11.734;2022-09-09T01:43:38;1.48;;;0.70;;
51332;SDS011;37417;48.118;11.734;2022-09-09T01:46:24;0.70;;;0.68;;
51332;SDS011;37417;48.118;11.734;2022-09-09T01:49:09;2.22;;;0.80;;
51332;SDS011;37417;48.118;11.734;2022-09-09T01:51:56;3.10;;;0.60;;
51332;SDS011;37417;48.118;11.734;2022-09-09T01:54:41;3.45;;;0.70;;
51332;SDS011;37417;48.118;11.734;2022-09-09T01:57:29;2.28;;;0.75;;
51332;SDS011;37417;48.118;11.734;2022-09-09T02:00:15;1.52;;;1.00;;
51332;SDS011;37417;48.118;11.734;2022-09-09T02:08:42;1.75;;;1.08;;
51332;SDS011;37417;48.118;11.734;2022-09-09T02:11:30;2.75;;;1.20;;
51332;SDS011;37417;48.118;11.734;2022-09-09T02:14:18;3.42;;;0.82;;
51332;SDS011;37417;48.118;11.734;2022-09-09T02:17:10;2.28;;;0.90;;
51332;SDS011;37417;48.118;11.734;2022-09-09T02:20:06;6.03;;;0.80;;
51332;SDS011;37417;48.118;11.734;2022-09-09T02:22:53;1.38;;;0.80;;
51332;SDS011;37417;48.118;11.734;2022-09-09T02:25:39;5.28;;;0.73;;
51332;SDS011;37417;48.118;11.734;2022-09-09T02:28:26;1.23;;;0.80;;
51332;SDS011;37417;48.118;11.734;2022-09-09T02:31:15;4.10;;;0.70;;
51332;SDS011;37417;48.118;11.734;2022-09-09T02:34:02;3.65;;;0.70;;
51332;SDS011;37417;48.118;11.734;2022-09-09T02:36:48;0.63;;;0.55;;
51332;SDS011;37417;48.118;11.734;2022-09-09T02:39:34;3.33;;;0.85;;
51332;SDS011;37417;48.118;11.734;2022-09-09T02:42:20;1.10;;;0.70;;
51332;SDS011;37417;48.118;11.734;2022-09-09T02:45:06;1.67;;;0.60;;
51332;SDS011;37417;48.118;11.734;2022-09-09T02:48:09;0.50;;;0.50;;
51332;SDS011;37417;48.118;11.734;2022-09-09T02:54:29;3.15;;;0.80;;
51332;SDS011;37417;48.118;11.734;2022-09-09T02:57:17;1.35;;;0.55;;
51332;SDS011;37417;48.118;11.734;2022-09-09T03:00:04;1.00;;;0.70;;
51332;SDS011;37417;48.118;11.734;2022-09-09T03:02:50;2.65;;;0.75;;
51332;SDS011;37417;48.118;11.734;2022-09-09T03:05:36;0.75;;;0.50;;
51332;SDS011;37417;48.118;11.734;2022-09-09T03:08:22;2.72;;;0.60;;
51332;SDS011;37417;48.118;11.734;2022-09-09T03:11:08;1.92;;;0.70;;
51332;SDS011;37417;48.118;11.734;2022-09-09T03:13:54;0.70;;;0.52;;
51332;SDS011;37417;48.118;11.734;2022-09-09T03:16:41;2.67;;;0.63;;
51332;SDS011;37417;48.118;11.734;2022-09-09T03:19:28;1.10;;;0.40;;
51332;SDS011;37417;48.118;11.734;2022-09-09T03:22:15;0.75;;;0.50;;
51332;SDS011;37417;48.118;11.734;2022-09-09T03:25:00;2.50;;;0.82;;
51332;SDS011;37417;48.118;11.734;2022-09-09T03:27:47;3.28;;;0.90;;
51332;SDS011;37417;48.118;11.734;2022-09-09T03:30:33;1.27;;;0.90;;
51332;SDS011;37417;48.118;11.734;2022-09-09T03:33:19;2.67;;;0.57;;
51332;SDS011;37417;48.118;11.734;2022-09-09T03:36:04;2.95;;;0.88;;
51332;SDS011;37417;48.118;11.734;2022-09-09T03:38:50;2.42;;;0.70;;
51332;SDS011;37417;48.118;11.734;2022-09-09T03:41:36;0.85;;;0.60;;
51332;SDS011;37417;48.118;11.734;2022-09-09T03:44:22;1.67;;;0.70;;
51332;SDS011;37417;48.118;11.734;2022-09-09T03:47:08;0.52;;;0.50;;
51332;SDS011;37417;48.118;11.734;2022-09-09T03:49:53;3.72;;;0.93;;
51332;SDS011;37417;48.118;11.734;2022-09-09T03:52:39;3.20;;;0.70;;
51332;SDS011;37417;48.118;11.734;2022-09-09T03:55:26;2.50;;;0.98;;
51332;SDS011;37417;48.118;11.734;2022-09-09T03:58:12;1.45;;;0.70;;
51332;SDS011;37417;48.118;11.734;2022-09-09T04:03:46;0.88;;;0.88;;
51332;SDS011;37417;48.118;11.734;2022-09-09T04:06:32;1.00;;;0.90;;
51332;SDS011;37417;48.118;11.734;2022-09-09T04:09:17;5.35;;;0.90;;
51332;SDS011;37417;48.118;11.734;2022-09-09T04:12:03;1.77;;;0.63;;
51332;SDS011;37417;48.118;11.734;2022-09-09T04:14:49;5.93;;;0.90;;
51332;SDS011;37417;48.118;11.734;2022-09-09T04:17:35;2.33;;;0.55;;
51332;SDS011;37417;48.118;11.734;2022-09-09T04:20:21;2.30;;;0.95;;
51332;SDS011;37417;48.118;11.734;2022-09-09T04:23:07;3.95;;;0.90;;
51332;SDS011;37417;48.118;11.734;2022-09-09T04:25:53;2.42;;;0.60;;
51332;SDS011;37417;48.118;11.734;2022-09-09T04:28:39;0.60;;;0.43;;
51332;SDS011;37417;48.118;11.734;2022-09-09T04:31:25;0.73;;;0.73;;
51332;SDS011;37417;48.118;11.734;2022-09-09T04:34:11;1.25;;;0.55;;
51332;SDS011;37417;48.118;11.734;2022-09-09T04:36:56;1.35;;;0.82;;
51332;SDS011;37417;48.118;11.734;2022-09-09T04:39:42;0.73;;;0.73;;
51332;SDS011;37417;48.118;11.734;2022-09-09T04:42:27;1.20;;;0.90;;
51332;SDS011;37417;48.118;11.734;2022-09-09T04:45:13;2.67;;;0.93;;
51332;SDS011;37417;48.118;11.734;2022-09-09T04:47:59;2.83;;;0.60;;
51332;SDS011;37417;48.118;11.734;2022-09-09T04:50:53;0.82;;;0.75;;
51332;SDS011;37417;48.118;11.734;2022-09-09T04:53:38;1.52;;;0.60;;
51332;SDS011;37417;48.118;11.734;2022-09-09T04:56:25;1.63;;;0.65;;
51332;SDS011;37417;48.118;11.734;2022-09-09T04:59:13;3.42;;;0.90;;
51332;SDS011;37417;48.118;11.734;2022-09-09T05:01:59;2.10;;;0.70;;
51332;SDS011;37417;48.118;11.734;2022-09-09T05:04:46;3.53;;;0.75;;
51332;SDS011;37417;48.118;11.734;2022-09-09T05:07:31;1.58;;;0.88;;
51332;SDS011;37417;48.118;11.734;2022-09-09T05:10:17;1.75;;;0.80;;
51332;SDS011;37417;48.118;11.734;2022-09-09T05:13:03;0.95;;;0.60;;
51332;SDS011;37417;48.118;11.734;2022-09-09T05:15:53;2.05;;;0.55;;
51332;SDS011;37417;48.118;11.734;2022-09-09T05:18:39;1.05;;;0.60;;
51332;SDS011;37417;48.118;11.734;2022-09-09T05:21:24;1.95;;;0.80;;
51332;SDS011;37417;48.118;11.734;2022-09-09T05:24:13;1.40;;;0.73;;
51332;SDS011;37417;48.118;11.734;2022-09-09T05:26:59;2.10;;;0.80;;
51332;SDS011;37417;48.118;11.734;2022-09-09T05:29:47;1.45;;;0.85;;
51332;SDS011;37417;48.118;11.734;2022-09-09T05:32:33;1.55;;;0.80;;
51332;SDS011;37417;48.118;11.734;2022-09-09T05:35:19;0.85;;;0.50;;
51332;SDS011;37417;48.118;11.734;2022-09-09T05:38:05;3.05;;;0.80;;
51332;SDS011;37417;48.118;11.734;2022-09-09T05:40:52;0.90;;;0.63;;
51332;SDS011;37417;48.118;11.734;2022-09-09T05:43:37;1.58;;;0.85;;
51332;SDS011;37417;48.118;11.734;2022-09-09T05:46:23;1.23;;;0.80;;
51332;SDS011;37417;48.118;11.734;2022-09-09T05:49:10;1.58;;;0.98;;
51332;SDS011;37417;48.118;11.734;2022-09-09T05:51:55;1.13;;;0.80;;
51332;SDS011;37417;48.118;11.734;2022-09-09T05:54:41;2.50;;;0.70;;
51332;SDS011;37417;48.118;11.734;2022-09-09T05:57:27;4.25;;;0.82;;
51332;SDS011;37417;48.118;11.734;2022-09-09T06:00:13;1.67;;;0.63;;
51332;SDS011;37417;48.118;11.734;2022-09-09T06:03:00;1.40;;;0.68;;
51332;SDS011;37417;48.118;11.734;2022-09-09T06:05:45;2.65;;;0.93;;
51332;SDS011;37417;48.118;11.734;2022-09-09T06:08:32;1.48;;;0.80;;
51332;SDS011;37417;48.118;11.734;2022-09-09T06:11:18;1.60;;;0.57;;
51332;SDS011;37417;48.118;11.734;2022-09-09T06:14:04;5.57;;;0.75;;
51332;SDS011;37417;48.118;11.734;2022-09-09T06:16:50;2.10;;;0.45;;
51332;SDS011;37417;48.118;11.734;2022-09-09T06:19:36;1.65;;;0.40;;
51332;SDS011;37417;48.118;11.734;2022-09-09T06:22:21;2.75;;;0.60;;
51332;SDS011;37417;48.118;11.734;2022-09-09T06:25:08;6.40;;;0.88;;
51332;SDS011;37417;48.118;11.734;2022-09-09T06:27:53;1.13;;;0.60;;
51332;SDS011;37417;48.118;11.734;2022-09-09T06:30:39;2.22;;;0.80;;
51332;SDS011;37417;48.118;11.734;2022-09-09T06:33:26;1.38;;;0.50;;
51332;SDS011;37417;48.118;11.734;2022-09-09T06:36:12;0.88;;;0.50;;
51332;SDS011;37417;48.118;11.734;2022-09-09T06:38:59;0.93;;;0.63;;
51332;SDS011;37417;48.118;11.734;2022-09-09T06:41:45;2.67;;;0.68;;
51332;SDS011;37417;48.118;11.734;2022-09-09T06:44:30;3.22;;;0.68;;
51332;SDS011;37417;48.118;11.734;2022-09-09T06:47:17;3.40;;;0.95;;
51332;SDS011;37417;48.118;11.734;2022-09-09T06:50:02;2.58;;;0.60;;
51332;SDS011;37417;48.118;11.734;2022-09-09T06:52:48;1.95;;;0.57;;
51332;SDS011;37417;48.118;11.734;2022-09-09T06:55:33;0.80;;;0.73;;
51332;SDS011;37417;48.118;11.734;2022-09-09T06:58:20;1.02;;;0.60;;
51332;SDS011;37417;48.118;11.734;2022-09-09T07:01:07;0.88;;;0.57;;
51332;SDS011;37417;48.118;11.734;2022-09-09T07:03:53;1.63;;;0.65;;
51332;SDS011;37417;48.118;11.734;2022-09-09T07:06:41;3.85;;;0.80;;
51332;SDS011;37417;48.118;11.734;2022-09-09T07:09:28;0.90;;;0.80;;
51332;SDS011;37417;48.118;11.734;2022-09-09T07:12:14;1.95;;;0.65;;
51332;SDS011;37417;48.118;11.734;2022-09-09T07:15:00;5.05;;;0.60;;
51332;SDS011;37417;48.118;11.734;2022-09-09T07:17:46;6.78;;;0.88;;
51332;SDS011;37417;48.118;11.734;2022-09-09T07:20:31;0.40;;;0.40;;
51332;SDS011;37417;48.118;11.734;2022-09-09T07:23:17;1.23;;;0.70;;
51332;SDS011;37417;48.118;11.734;2022-09-09T07:26:06;1.17;;;0.73;;
51332;SDS011;37417;48.118;11.734;2022-09-09T07:28:52;3.13;;;0.68;;
51332;SDS011;37417;48.118;11.734;2022-09-09T07:31:38;1.08;;;0.68;;
51332;SDS011;37417;48.118;11.734;2022-09-09T07:34:25;1.02;;;0.70;;
51332;SDS011;37417;48.118;11.734;2022-09-09T07:37:10;1.63;;;0.73;;
51332;SDS011;37417;48.118;11.734;2022-09-09T07:39:57;4.40;;;0.80;;
51332;SDS011;37417;48.118;11.734;2022-09-09T07:42:42;2.92;;;0.60;;
51332;SDS011;37417;48.118;11.734;2022-09-09T07:45:28;0.70;;;0.50;;
51332;SDS011;37417;48.118;11.734;2022-09-09T07:48:13;1.65;;;0.55;;
51332;SDS011;37417;48.118;11.734;2022-09-09T07:51:04;2.05;;;0.50;;
51332;SDS011;37417;48.118;11.734;2022-09-09T07:53:55;1.75;;;0.70;;
51332;SDS011;37417;48.118;11.734;2022-09-09T07:56:42;0.95;;;0.50;;
51332;SDS011;37417;48.118;11.734;2022-09-09T07:59:28;2.63;;;0.70;;
51332;SDS011;37417;48.118;11.734;2022-09-09T08:02:15;1.52;;;0.50;;
51332;SDS011;37417;48.118;11.734;2022-09-09T08:05:01;0.75;;;0.28;;
51332;SDS011;37417;48.118;11.734;2022-09-09T08:07:47;1.30;;;0.60;;
51332;SDS011;37417;48.118;11.734;2022-09-09T08:10:33;0.70;;;0.40;;
51332;SDS011;37417;48.118;11.734;2022-09-09T08:13:19;1.00;;;0.40;;
51332;SDS011;37417;48.118;11.734;2022-09-09T08:16:06;3.63;;;0.52;;
51332;SDS011;37417;48.118;11.734;2022-09-09T08:18:52;5.18;;;0.55;;
51332;SDS011;37417;48.118;11.734;2022-09-09T08:21:39;0.52;;;0.40;;
51332;SDS011;37417;48.118;11.734;2022-09-09T08:24:26;1.20;;;0.52;;
51332;SDS011;37417;48.118;11.734;2022-09-09T08:27:11;0.90;;;0.45;;
51332;SDS011;37417;48.118;11.734;2022-09-09T08:29:58;3.60;;;0.60;;
51332;SDS011;37417;48.118;11.734;2022-09-09T08:32:44;0.65;;;0.30;;
51332;SDS011;37417;48.118;11.734;2022-09-09T08:35:29;2.83;;;0.60;;
51332;SDS011;37417;48.118;11.734;2022-09-09T08:38:17;0.20;;;0.20;;
51332;SDS011;37417;48.118;11.734;2022-09-09T08:41:07;1.25;;;0.40;;
51332;SDS011;37417;48.118;11.734;2022-09-09T08:44:07;0.47;;;0.35;;
51332;SDS011;37417;48.118;11.734;2022-09-09T08:47:15;0.40;;;0.30;;
51332;SDS011;37417;48.118;11.734;2022-09-09T08:55:54;3.08;;;0.38;;
51332;SDS011;37417;48.118;11.734;2022-09-09T08:58:47;1.40;;;0.68;;
51332;SDS011;37417;48.118;11.734;2022-09-09T09:01:41;2.05;;;0.47;;
51332;SDS011;37417;48.118;11.734;2022-09-09T09:13:14;2.60;;;0.50;;
51332;SDS011;37417;48.118;11.734;2022-09-09T09:16:13;0.60;;;0.45;;
51332;SDS011;37417;48.118;11.734;2022-09-09T09:19:01;1.27;;;0.43;;
51332;SDS011;37417;48.118;11.734;2022-09-09T09:21:51;1.50;;;0.60;;
51332;SDS011;37417;48.118;11.734;2022-09-09T09:24:53;2.97;;;0.73;;
51332;SDS011;37417;48.118;11.734;2022-09-09T09:27:43;3.83;;;0.70;;
51332;SDS011;37417;48.118;11.734;2022-09-09T09:30:42;4.07;;;0.85;;
51332;SDS011;37417;48.118;11.734;2022-09-09T09:33:33;1.23;;;0.60;;
51332;SDS011;37417;48.118;11.734;2022-09-09T09:36:24;2.38;;;0.38;;
51332;SDS011;37417;48.118;11.734;2022-09-09T09:39:21;2.70;;;0.93;;
51332;SDS011;37417;48.118;11.734;2022-09-09T09:42:13;2.72;;;0.68;;
51332;SDS011;37417;48.118;11.734;2022-09-09T09:48:05;1.10;;;0.63;;
51332;SDS011;37417;48.118;11.734;2022-09-09T09:50:55;0.80;;;0.35;;
51332;SDS011;37417;48.118;11.734;2022-09-09T09:53:41;1.33;;;0.68;;
51332;SDS011;37417;48.118;11.734;2022-09-09T09:56:27;1.40;;;0.40;;
51332;SDS011;37417;48.118;11.734;2022-09-09T09:59:33;2.50;;;0.50;;
51332;SDS011;37417;48.118;11.734;2022-09-09T10:08:12;2.05;;;0.50;;
51332;SDS011;37417;48.118;11.734;2022-09-09T10:19:37;0.47;;;0.47;;
51332;SDS011;37417;48.118;11.734;2022-09-09T10:22:26;0.85;;;0.40;;
51332;SDS011;37417;48.118;11.734;2022-09-09T10:37:17;1.02;;;0.45;;
51332;SDS011;37417;48.118;11.734;2022-09-09T10:42:54;2.05;;;0.47;;
51332;SDS011;37417;48.118;11.734;2022-09-09T10:46:17;2.40;;;0.50;;
51332;SDS011;37417;48.118;11.734;2022-09-09T10:57:53;0.77;;;0.45;;
51332;SDS011;37417;48.118;11.734;2022-09-09T11:00:42;1.45;;;0.52;;
51332;SDS011;37417;48.118;11.734;2022-09-09T11:03:30;1.98;;;0.43;;
51332;SDS011;37417;48.118;11.734;2022-09-09T11:06:19;0.80;;;0.43;;
51332;SDS011;37417;48.118;11.734;2022-09-09T11:09:08;0.55;;;0.40;;
51332;SDS011;37417;48.118;11.734;2022-09-09T11:11:59;1.05;;;0.52;;
51332;SDS011;37417;48.118;11.734;2022-09-09T11:14:59;1.20;;;0.30;;
51332;SDS011;37417;48.118;11.734;2022-09-09T11:17:49;0.20;;;0.20;;
51332;SDS011;37417;48.118;11.734;2022-09-09T11:20:36;3.30;;;0.40;;
51332;SDS011;37417;48.118;11.734;2022-09-09T11:23:23;2.22;;;0.68;;
51332;SDS011;37417;48.118;11.734;2022-09-09T11:26:12;0.30;;;0.30;;
51332;SDS011;37417;48.118;11.734;2022-09-09T11:32:00;1.30;;;0.40;;
51332;SDS011;37417;48.118;11.734;2022-09-09T11:35:02;0.68;;;0.30;;
51332;SDS011;37417;48.118;11.734;2022-09-09T11:40:40;1.55;;;0.43;;
51332;SDS011;37417;48.118;11.734;2022-09-09T11:43:28;0.57;;;0.15;;
51332;SDS011;37417;48.118;11.734;2022-09-09T11:46:15;1.40;;;0.22;;
51332;SDS011;37417;48.118;11.734;2022-09-09T11:49:03;2.65;;;0.30;;
51332;SDS011;37417;48.118;11.734;2022-09-09T11:51:49;0.73;;;0.20;;
51332;SDS011;37417;48.118;11.734;2022-09-09T11:54:44;0.20;;;0.20;;
51332;SDS011;37417;48.118;11.734;2022-09-09T11:57:31;0.10;;;0.10;;
51332;SDS011;37417;48.118;11.734;2022-09-09T12:00:34;0.40;;;0.10;;
51332;SDS011;37417;48.118;11.734;2022-09-09T12:06:28;0.30;;;0.13;;
51332;SDS011;37417;48.118;11.734;2022-09-09T12:09:23;3.17;;;0.35;;
51332;SDS011;37417;48.118;11.734;2022-09-09T12:17:51;2.78;;;0.20;;
51332;SDS011;37417;48.118;11.734;2022-09-09T12:20:38;0.50;;;0.20;;
51332;SDS011;37417;48.118;11.734;2022-09-09T12:23:29;1.17;;;0.20;;
51332;SDS011;37417;48.118;11.734;2022-09-09T12:26:27;0.65;;;0.25;;
51332;SDS011;37417;48.118;11.734;2022-09-09T12:32:23;0.88;;;0.30;;
51332;SDS011;37417;48.118;11.734;2022-09-09T12:35:20;0.45;;;0.30;;
51332;SDS011;37417;48.118;11.734;2022-09-09T12:38:09;0.57;;;0.30;;
51332;SDS011;37417;48.118;11.734;2022-09-09T12:40:57;1.75;;;0.35;;
51332;SDS011;37417;48.118;11.734;2022-09-09T12:43:45;0.40;;;0.10;;
51332;SDS011;37417;48.118;11.734;2022-09-09T12:46:48;0.32;;;0.20;;
51332;SDS011;37417;48.118;11.734;2022-09-09T12:49:35;1.45;;;0.20;;
51332;SDS011;37417;48.118;11.734;2022-09-09T12:52:28;0.25;;;0.13;;
51332;SDS011;37417;48.118;11.734;2022-09-09T12:55:19;2.45;;;0.10;;
51332;SDS011;37417;48.118;11.734;2022-09-09T12:58:06;2.40;;;0.35;;
51332;SDS011;37417;48.118;11.734;2022-09-09T13:00:53;1.45;;;0.20;;
51332;SDS011;37417;48.118;11.734;2022-09-09T13:03:42;0.22;;;0.13;;
51332;SDS011;37417;48.118;11.734;2022-09-09T13:06:31;0.73;;;0.28;;
51332;SDS011;37417;48.118;11.734;2022-09-09T13:09:20;2.55;;;0.20;;
51332;SDS011;37417;48.118;11.734;2022-09-09T13:12:06;0.55;;;0.22;;
51332;SDS011;37417;48.118;11.734;2022-09-09T13:14:58;5.10;;;0.22;;
51332;SDS011;37417;48.118;11.734;2022-09-09T13:17:48;0.57;;;0.20;;
51332;SDS011;37417;48.118;11.734;2022-09-09T13:20:34;1.98;;;0.30;;
51332;SDS011;37417;48.118;11.734;2022-09-09T13:23:20;1.13;;;0.20;;
51332;SDS011;37417;48.118;11.734;2022-09-09T13:26:27;0.20;;;0.20;;
51332;SDS011;37417;48.118;11.734;2022-09-09T13:29:17;0.65;;;0.20;;
51332;SDS011;37417;48.118;11.734;2022-09-09T13:32:04;0.55;;;0.20;;
51332;SDS011;37417;48.118;11.734;2022-09-09T13:34:57;0.82;;;0.22;;
51332;SDS011;37417;48.118;11.734;2022-09-09T13:37:43;1.35;;;0.20;;
51332;SDS011;37417;48.118;11.734;2022-09-09T13:40:29;2.95;;;0.30;;
51332;SDS011;37417;48.118;11.734;2022-09-09T13:43:18;0.60;;;0.20;;
51332;SDS011;37417;48.118;11.734;2022-09-09T13:46:29;0.32;;;0.10;;
51332;SDS011;37417;48.118;11.734;2022-09-09T13:54:51;0.55;;;0.10;;
51332;SDS011;37417;48.118;11.734;2022-09-09T13:57:37;0.55;;;0.10;;
51332;SDS011;37417;48.118;11.734;2022-09-09T14:00:22;0.50;;;0.20;;
51332;SDS011;37417;48.118;11.734;2022-09-09T14:03:09;1.80;;;0.30;;
51332;SDS011;37417;48.118;11.734;2022-09-09T14:05:55;0.20;;;0.20;;
51332;SDS011;37417;48.118;11.734;2022-09-09T14:08:41;0.15;;;0.13;;
51332;SDS011;37417;48.118;11.734;2022-09-09T14:11:26;0.30;;;0.30;;
51332;SDS011;37417;48.118;11.734;2022-09-09T14:14:12;1.05;;;0.35;;
51332;SDS011;37417;48.118;11.734;2022-09-09T14:16:57;4.50;;;0.38;;
51332;SDS011;37417;48.118;11.734;2022-09-09T14:19:43;0.63;;;0.30;;
51332;SDS011;37417;48.118;11.734;2022-09-09T14:22:31;0.60;;;0.40;;
51332;SDS011;37417;48.118;11.734;2022-09-09T14:25:16;0.70;;;0.30;;
51332;SDS011;37417;48.118;11.734;2022-09-09T14:28:02;0.88;;;0.10;;
51332;SDS011;37417;48.118;11.734;2022-09-09T14:30:48;2.47;;;0.30;;
51332;SDS011;37417;48.118;11.734;2022-09-09T14:33:33;0.30;;;0.10;;
51332;SDS011;37417;48.118;11.734;2022-09-09T14:36:19;0.70;;;0.20;;
51332;SDS011;37417;48.118;11.734;2022-09-09T14:39:05;0.35;;;0.20;;
51332;SDS011;37417;48.118;11.734;2022-09-09T14:41:51;0.32;;;0.20;;
51332;SDS011;37417;48.118;11.734;2022-09-09T14:44:37;0.73;;;0.20;;
51332;SDS011;37417;48.118;11.734;2022-09-09T14:47:23;0.30;;;0.10;;
51332;SDS011;37417;48.118;11.734;2022-09-09T14:50:09;0.22;;;0.20;;
51332;SDS011;37417;48.118;11.734;2022-09-09T14:52:54;1.23;;;0.20;;
51332;SDS011;37417;48.118;11.734;2022-09-09T14:55:40;2.17;;;0.30;;
51332;SDS011;37417;48.118;11.734;2022-09-09T14:58:29;0.65;;;0.28;;
51332;SDS011;37417;48.118;11.734;2022-09-09T15:01:16;2.83;;;0.32;;
51332;SDS011;37417;48.118;11.734;2022-09-09T15:04:03;2.47;;;0.35;;
51332;SDS011;37417;48.118;11.734;2022-09-09T15:06:49;0.17;;;0.10;;
51332;SDS011;37417;48.118;11.734;2022-09-09T15:09:37;0.63;;;0.20;;
51332;SDS011;37417;48.118;11.734;2022-09-09T15:12:23;1.25;;;0.38;;
51332;SDS011;37417;48.118;11.734;2022-09-09T15:15:09;2.08;;;0.40;;
51332;SDS011;37417;48.118;11.734;2022-09-09T15:17:54;4.60;;;0.50;;
51332;SDS011;37417;48.118;11.734;2022-09-09T15:20:44;0.50;;;0.20;;
51332;SDS011;37417;48.118;11.734;2022-09-09T15:23:32;2.15;;;0.43;;
51332;SDS011;37417;48.118;11.734;2022-09-09T15:26:17;0.70;;;0.30;;
51332;SDS011;37417;48.118;11.734;2022-09-09T15:29:03;1.48;;;0.20;;
51332;SDS011;37417;48.118;11.734;2022-09-09T15:31:49;0.38;;;0.20;;
51332;SDS011;37417;48.118;11.734;2022-09-09T15:34:34;0.25;;;0.25;;
51332;SDS011;37417;48.118;11.734;2022-09-09T15:37:20;0.25;;;0.10;;
51332;SDS011;37417;48.118;11.734;2022-09-09T15:40:06;1.92;;;0.25;;
51332;SDS011;37417;48.118;11.734;2022-09-09T15:42:51;1.05;;;0.50;;
51332;SDS011;37417;48.118;11.734;2022-09-09T15:45:37;2.40;;;0.50;;
51332;SDS011;37417;48.118;11.734;2022-09-09T15:48:29;2.75;;;0.40;;
51332;SDS011;37417;48.118;11.734;2022-09-09T15:51:17;1.92;;;0.60;;
51332;SDS011;37417;48.118;11.734;2022-09-09T15:54:04;1.35;;;0.40;;
51332;SDS011;37417;48.118;11.734;2022-09-09T15:56:51;1.27;;;0.32;;
51332;SDS011;37417;48.118;11.734;2022-09-09T15:59:37;2.20;;;0.20;;
51332;SDS011;37417;48.118;11.734;2022-09-09T16:02:22;0.57;;;0.45;;
51332;SDS011;37417;48.118;11.734;2022-09-09T16:05:08;1.48;;;0.35;;
51332;SDS011;37417;48.118;11.734;2022-09-09T16:07:53;11.13;;;0.88;;
51332;SDS011;37417;48.118;11.734;2022-09-09T16:10:39;0.98;;;0.35;;
51332;SDS011;37417;48.118;11.734;2022-09-09T16:13:25;1.35;;;0.40;;
51332;SDS011;37417;48.118;11.734;2022-09-09T16:16:11;2.35;;;0.40;;
51332;SDS011;37417;48.118;11.734;2022-09-09T16:18:59;0.68;;;0.28;;
51332;SDS011;37417;48.118;11.734;2022-09-09T16:21:45;0.95;;;0.20;;
51332;SDS011;37417;48.118;11.734;2022-09-09T16:24:32;0.77;;;0.22;;
51332;SDS011;37417;48.118;11.734;2022-09-09T16:27:17;1.85;;;0.40;;
51332;SDS011;37417;48.118;11.734;2022-09-09T16:30:03;1.67;;;0.40;;
51332;SDS011;37417;48.118;11.734;2022-09-09T16:32:49;1.05;;;0.40;;
51332;SDS011;37417;48.118;11.734;2022-09-09T16:35:38;0.75;;;0.30;;
51332;SDS011;37417;48.118;11.734;2022-09-09T16:38:24;0.85;;;0.47;;
51332;SDS011;37417;48.118;11.734;2022-09-09T16:41:09;0.25;;;0.20;;
51332;SDS011;37417;48.118;11.734;2022-09-09T16:43:56;0.85;;;0.30;;
51332;SDS011;37417;48.118;11.734;2022-09-09T16:46:42;1.08;;;0.32;;
51332;SDS011;37417;48.118;11.734;2022-09-09T16:49:28;0.43;;;0.28;;
51332;SDS011;37417;48.118;11.734;2022-09-09T16:52:14;1.10;;;0.32;;
51332;SDS011;37417;48.118;11.734;2022-09-09T16:54:59;0.47;;;0.30;;
51332;SDS011;37417;48.118;11.734;2022-09-09T16:57:46;0.73;;;0.35;;
51332;SDS011;37417;48.118;11.734;2022-09-09T17:00:34;2.08;;;0.30;;
51332;SDS011;37417;48.118;11.734;2022-09-09T17:03:20;1.20;;;0.43;;
51332;SDS011;37417;48.118;11.734;2022-09-09T17:06:09;0.65;;;0.28;;
51332;SDS011;37417;48.118;11.734;2022-09-09T17:08:56;2.40;;;0.43;;
51332;SDS011;37417;48.118;11.734;2022-09-09T17:11:42;0.55;;;0.30;;
51332;SDS011;37417;48.118;11.734;2022-09-09T17:14:28;0.70;;;0.20;;
51332;SDS011;37417;48.118;11.734;2022-09-09T17:17:16;0.68;;;0.20;;
51332;SDS011;37417;48.118;11.734;2022-09-09T17:20:02;10.10;;;0.50;;
51332;SDS011;37417;48.118;11.734;2022-09-09T17:22:48;0.93;;;0.22;;
51332;SDS011;37417;48.118;11.734;2022-09-09T17:25:34;1.48;;;0.43;;
51332;SDS011;37417;48.118;11.734;2022-09-09T17:28:20;0.70;;;0.40;;
51332;SDS011;37417;48.118;11.734;2022-09-09T17:31:11;2.75;;;0.40;;
51332;SDS011;37417;48.118;11.734;2022-09-09T17:33:57;1.27;;;0.50;;
51332;SDS011;37417;48.118;11.734;2022-09-09T17:36:44;0.60;;;0.35;;
51332;SDS011;37417;48.118;11.734;2022-09-09T17:39:30;0.50;;;0.35;;
51332;SDS011;37417;48.118;11.734;2022-09-09T17:42:15;0.43;;;0.43;;
51332;SDS011;37417;48.118;11.734;2022-09-09T17:45:01;1.75;;;0.40;;
51332;SDS011;37417;48.118;11.734;2022-09-09T17:47:46;1.80;;;0.52;;
51332;SDS011;37417;48.118;11.734;2022-09-09T17:50:32;0.45;;;0.45;;
51332;SDS011;37417;48.118;11.734;2022-09-09T17:53:19;1.70;;;0.68;;
51332;SDS011;37417;48.118;11.734;2022-09-09T17:56:05;2.40;;;0.57;;
51332;SDS011;37417;48.118;11.734;2022-09-09T17:58:52;2.83;;;0.60;;
51332;SDS011;37417;48.118;11.734;2022-09-09T18:01:38;1.52;;;0.60;;
51332;SDS011;37417;48.118;11.734;2022-09-09T18:04:24;0.65;;;0.43;;
51332;SDS011;37417;48.118;11.734;2022-09-09T18:07:10;1.60;;;0.68;;
51332;SDS011;37417;48.118;11.734;2022-09-09T18:09:55;3.50;;;0.80;;
51332;SDS011;37417;48.118;11.734;2022-09-09T18:12:41;1.27;;;0.43;;
51332;SDS011;37417;48.118;11.734;2022-09-09T18:15:27;1.77;;;0.70;;
51332;SDS011;37417;48.118;11.734;2022-09-09T18:18:12;0.80;;;0.57;;
51332;SDS011;37417;48.118;11.734;2022-09-09T18:21:04;4.30;;;0.68;;
51332;SDS011;37417;48.118;11.734;2022-09-09T18:23:50;2.88;;;0.50;;
51332;SDS011;37417;48.118;11.734;2022-09-09T18:26:37;2.90;;;0.50;;
51332;SDS011;37417;48.118;11.734;2022-09-09T18:29:24;2.00;;;0.93;;
51332;SDS011;37417;48.118;11.734;2022-09-09T18:32:09;2.45;;;0.93;;
51332;SDS011;37417;48.118;11.734;2022-09-09T18:34:55;5.47;;;1.05;;
51332;SDS011;37417;48.118;11.734;2022-09-09T18:37:45;3.83;;;1.23;;